Terminal Aerodrome Forecast
Issued by NWS Lake Charles, LA

Home | Current Version | Previous Version | Text Only | Print | Product List | Glossary On
Versions: 1 2 3 4 5 6 7 8 9 10 11 12 13 14
429
FTUS44 KLCH 291132
TAFARA
TAF
KARA 291132Z 2912/3012 05003KT P6SM VCSH SCT004 SCT100
     FM291700 06010KT P6SM VCTS FEW015CB SCT025 BKN050
      TEMPO 2917/2921 2SM TSRA SCT008 BKN015CB
     FM300100 VRB03KT P6SM FEW060 BKN200=

USA.gov is the U.S. government's official web portal to all federal, state and local government web resources and services.